Terminal Aerodrome Forecast
Issued by NWS

Home | Current Version | Previous Version | Text Only | Print | Product List | Glossary On
Versions: 1 2 3 4 5 6 7 8 9 10 11 12 13 14
095
FTUS41 KCAR 181720
TAFPQI
TAF
KPQI 181720Z 1818/1918 14007KT P6SM BKN250
     FM190100 16006KT P6SM BKN025
     FM190300 16006KT P6SM OVC015
     FM190700 17007KT 2SM -SN OVC015
     FM190800 18007KT 1SM -SN OVC008
     FM191400 20006KT P6SM OVC008
     FM191500 20006KT P6SM OVC005=

USA.gov is the U.S. government's official web portal to all federal, state and local government web resources and services.